createdAt,value
2019-06-10T00:02:30.895Z,98236.25
2019-06-10T00:05:35.893Z,98239.83
2019-06-10T00:08:41.207Z,98237.59
2019-06-10T00:11:45.782Z,98244.48
2019-06-10T00:14:50.963Z,98229.90
2019-06-10T00:18:16.186Z,98226.67
2019-06-10T00:21:03.639Z,98226.58
2019-06-10T00:24:08.596Z,98239.80
2019-06-10T00:27:13.053Z,98261.34
2019-06-10T00:30:17.775Z,98265.22
2019-06-10T00:33:22.212Z,98256.02
2019-06-10T00:36:26.662Z,98248.69
2019-06-10T00:39:31.327Z,98248.82
2019-06-10T00:42:35.751Z,98252.74
2019-06-10T00:45:41.018Z,98262.70
2019-06-10T00:48:45.746Z,98251.98
2019-06-10T00:51:51.094Z,98231.45
2019-06-10T00:54:55.571Z,98224.14
2019-06-10T00:58:01.434Z,98197.38
2019-06-10T01:01:07.957Z,98194.04
2019-06-10T01:04:16.235Z,98231.40
2019-06-10T01:07:18.695Z,98248.63
2019-06-10T01:10:23.218Z,98255.83
2019-06-10T01:13:27.676Z,98229.34
2019-06-10T01:16:32.382Z,98228.89
2019-06-10T01:19:36.825Z,98224.05
2019-06-10T01:22:41.278Z,98221.34
2019-06-10T01:25:45.738Z,98220.08
2019-06-10T01:28:51.649Z,98203.89
2019-06-10T01:31:56.321Z,98190.03
2019-06-10T01:35:01.247Z,98179.64
2019-06-10T01:38:06.216Z,98183.16
2019-06-10T01:41:12.370Z,98174.49
2019-06-10T01:44:17.713Z,98153.45
2019-06-10T01:47:22.292Z,98162.05
2019-06-10T01:50:26.756Z,98157.84
2019-06-10T01:53:31.567Z,98149.18
2019-06-10T01:56:36.317Z,98159.55
2019-06-10T01:59:41.320Z,98164.94
2019-06-10T02:02:45.915Z,98176.02
2019-06-10T02:05:51.625Z,98184.85
2019-06-10T02:09:09.627Z,98195.51
2019-06-10T02:12:17.571Z,98197.97
2019-06-10T02:15:22.622Z,98204.65
2019-06-10T02:18:27.402Z,98203.12
2019-06-10T02:21:31.854Z,98216.41
2019-06-10T02:24:36.288Z,98201.66
2019-06-10T02:27:41.551Z,98174.31
2019-06-10T02:30:51.936Z,98166.95
2019-06-10T02:33:52.760Z,98176.25
2019-06-10T02:36:57.859Z,98190.44
2019-06-10T02:40:04.515Z,98177.48
2019-06-10T02:43:14.249Z,98171.55
2019-06-10T02:46:19.990Z,98159.38
2019-06-10T02:49:42.342Z,98160.01
2019-06-10T02:52:32.626Z,98147.23
2019-06-10T02:55:35.326Z,98149.63
2019-06-10T02:58:43.987Z,98156.35
2019-06-10T03:01:46.209Z,98169.44
2019-06-10T03:04:53.432Z,98204.11
2019-06-10T03:07:56.889Z,98225.92
2019-06-10T03:11:03.820Z,98223.67
2019-06-10T03:14:07.511Z,98217.58
2019-06-10T03:17:13.967Z,98213.94
2019-06-10T03:20:18.412Z,98205.58
2019-06-10T03:23:25.136Z,98195.91
2019-06-10T03:26:29.038Z,98179.96
2019-06-10T03:29:33.495Z,98168.84
2019-06-10T03:32:42.635Z,98140.98
2019-06-10T03:35:44.269Z,98130.34
2019-06-10T03:38:49.018Z,98135.20
2019-06-10T03:41:53.463Z,98140.91
2019-06-10T03:44:57.925Z,98156.14
2019-06-10T03:48:03.741Z,98155.89
2019-06-10T03:51:08.559Z,98154.36
2019-06-10T03:54:13.315Z,98143.00
2019-06-10T03:57:19.120Z,98131.86
2019-06-10T04:00:25.603Z,98106.78
2019-06-10T04:03:30.244Z,98102.67
2019-06-10T04:06:34.759Z,98106.55
2019-06-10T04:09:39.199Z,98098.44
2019-06-10T04:12:43.659Z,98107.91
2019-06-10T04:15:48.105Z,98112.16
2019-06-10T04:18:53.423Z,98101.59
2019-06-10T04:21:58.348Z,98094.17
2019-06-10T04:25:03.193Z,98093.22
2019-06-10T04:28:07.738Z,98092.88
2019-06-10T04:31:13.269Z,98089.33
2019-06-10T04:34:18.348Z,98096.93
2019-06-10T04:37:23.450Z,98088.31
2019-06-10T04:40:29.348Z,98080.73
2019-06-10T04:43:34.003Z,98081.05
2019-06-10T04:46:38.452Z,98080.74
2019-06-10T04:49:42.991Z,98069.20
2019-06-10T04:52:47.673Z,98078.88
2019-06-10T04:55:52.356Z,98086.38
2019-06-10T04:58:56.852Z,98081.23
2019-06-10T05:02:02.467Z,98082.20
2019-06-10T05:05:08.234Z,98100.77
2019-06-10T05:08:13.198Z,98089.03
2019-06-10T05:11:19.030Z,98089.00
2019-06-10T05:14:25.331Z,98091.21
2019-06-10T05:17:31.778Z,98105.25
2019-06-10T05:20:51.076Z,98113.70
2019-06-10T05:23:43.073Z,98114.39
2019-06-10T05:26:47.717Z,98123.23
2019-06-10T05:29:52.699Z,98129.70
2019-06-10T05:32:57.276Z,98136.95
2019-06-10T05:36:02.651Z,98135.27
2019-06-10T05:39:08.381Z,98148.92
2019-06-10T05:42:12.900Z,98145.52
2019-06-10T05:45:17.660Z,98163.22
2019-06-10T05:48:22.737Z,98149.45
2019-06-10T05:51:29.039Z,98151.88
2019-06-10T05:54:35.294Z,98153.69
2019-06-10T05:57:39.754Z,98156.84
2019-06-10T06:00:44.851Z,98147.13
2019-06-10T06:03:49.303Z,98131.37
2019-06-10T06:06:53.762Z,98132.34
2019-06-10T06:09:58.219Z,98143.63
2019-06-10T06:13:03.124Z,98150.84
2019-06-10T06:16:07.897Z,98144.78
2019-06-10T06:19:12.745Z,98142.66
2019-06-10T06:22:17.327Z,98152.75
2019-06-10T06:25:24.060Z,98162.66
2019-06-10T06:28:28.038Z,98176.75
2019-06-10T06:31:33.422Z,98182.11
2019-06-10T06:34:38.960Z,98181.98
2019-06-10T06:37:43.405Z,98181.49
2019-06-10T06:40:47.880Z,98183.58
2019-06-10T06:43:53.122Z,98188.80
2019-06-10T06:46:57.825Z,98190.81
2019-06-10T06:50:02.823Z,98189.55
2019-06-10T06:53:21.317Z,98187.63
2019-06-10T06:56:13.543Z,98202.08
2019-06-10T06:59:17.998Z,98216.05
2019-06-10T07:02:22.873Z,98206.80
2019-06-10T07:05:27.298Z,98211.98
2019-06-10T07:08:36.159Z,98205.67
2019-06-10T07:11:45.027Z,98197.03
2019-06-10T07:14:52.698Z,98195.83
2019-06-10T07:17:57.168Z,98186.35
2019-06-10T07:21:02.651Z,98184.70
2019-06-10T07:24:07.253Z,98191.75
2019-06-10T07:27:13.085Z,98184.05
2019-06-10T07:30:18.479Z,98168.75
2019-06-10T07:33:22.997Z,98161.53
2019-06-10T07:36:27.455Z,98177.72
2019-06-10T07:39:34.667Z,98178.05
2019-06-10T07:42:39.014Z,98184.55
2019-06-10T07:45:47.388Z,98195.42
2019-06-10T07:48:53.527Z,98199.09
2019-06-10T07:52:11.826Z,98202.20
2019-06-10T07:55:02.568Z,98199.95
2019-06-10T07:58:07.053Z,98195.27
2019-06-10T08:01:13.163Z,98191.53
2019-06-10T08:04:17.906Z,98188.01
2019-06-10T08:07:22.581Z,98196.79
2019-06-10T08:10:27.178Z,98186.01
2019-06-10T08:13:32.293Z,98174.72
2019-06-10T08:16:37.857Z,98183.90
2019-06-10T08:19:48.691Z,98173.72
2019-06-10T08:22:54.029Z,98167.81
2019-06-10T08:25:57.755Z,98159.34
2019-06-10T08:29:04.179Z,98148.94
2019-06-10T08:32:07.059Z,98134.88
2019-06-10T08:35:12.886Z,98125.30
2019-06-10T08:38:17.439Z,98132.22
2019-06-10T08:41:23.072Z,98138.91
2019-06-10T08:44:27.811Z,98134.77
2019-06-10T08:47:32.710Z,98144.10
2019-06-10T08:50:37.592Z,98135.61
2019-06-10T08:53:46.250Z,98117.05
2019-06-10T08:56:50.920Z,98113.87
2019-06-10T08:59:55.018Z,98107.96
2019-06-10T09:02:59.477Z,98108.32
2019-06-10T09:06:03.931Z,98104.88
2019-06-10T09:09:08.811Z,98092.44
2019-06-10T09:12:28.599Z,98084.69
2019-06-10T09:15:19.860Z,98083.20
2019-06-10T09:18:24.310Z,98080.72
2019-06-10T09:21:28.763Z,98062.63
2019-06-10T09:24:33.227Z,98047.28
2019-06-10T09:27:37.737Z,98023.39
2019-06-10T09:30:47.599Z,97999.76
2019-06-10T09:33:53.383Z,97963.04
2019-06-10T09:36:56.925Z,97933.46
2019-06-10T09:40:03.430Z,97951.27
2019-06-10T09:43:08.062Z,97957.52
2019-06-10T09:46:12.757Z,97941.14
2019-06-10T09:49:17.690Z,97929.02
2019-06-10T09:52:24.031Z,97945.73
2019-06-10T09:55:32.905Z,97951.76
2019-06-10T09:58:37.701Z,97957.42
2019-06-10T10:01:47.291Z,97940.63
2019-06-10T10:04:52.566Z,97948.34
2019-06-10T10:07:57.318Z,97953.61
2019-06-10T10:11:00.989Z,97963.91
2019-06-10T10:14:10.387Z,97974.91
2019-06-10T10:17:13.735Z,97989.44
2019-06-10T10:20:18.318Z,97988.28
2019-06-10T10:23:23.079Z,98014.13
2019-06-10T10:26:27.536Z,98008.72
2019-06-10T10:29:32.850Z,98021.56
2019-06-10T10:32:37.405Z,98010.59
2019-06-10T10:35:43.136Z,97997.27
2019-06-10T10:38:48.912Z,97997.27
2019-06-10T10:41:56.809Z,97983.99
2019-06-10T10:44:59.695Z,97981.00
2019-06-10T10:48:04.147Z,97968.42
2019-06-10T10:51:08.935Z,97963.91
2019-06-10T10:54:28.708Z,97960.16
2019-06-10T10:57:19.568Z,97937.84
2019-06-10T11:00:25.354Z,97924.82
2019-06-10T11:03:29.806Z,97923.22
2019-06-10T11:06:34.244Z,97927.51
2019-06-10T11:09:38.703Z,97921.52
2019-06-10T11:12:46.985Z,97916.75
2019-06-10T11:15:54.915Z,97909.96
2019-06-10T11:18:58.084Z,97895.80
2019-06-10T11:22:03.100Z,97899.70
2019-06-10T11:25:07.788Z,97889.00
2019-06-10T11:28:13.011Z,97892.90
2019-06-10T11:31:17.460Z,97901.41
2019-06-10T11:34:21.910Z,97897.76
2019-06-10T11:37:26.364Z,97905.23
2019-06-10T11:40:31.615Z,97900.05
2019-06-10T11:43:36.997Z,97891.21
2019-06-10T11:46:43.055Z,97885.70
2019-06-10T11:49:48.946Z,97868.30
2019-06-10T11:52:57.086Z,97866.11
2019-06-10T11:56:02.227Z,97879.86
2019-06-10T11:59:09.585Z,97895.34
2019-06-10T12:02:13.313Z,97903.43
2019-06-10T12:05:20.514Z,97917.42
2019-06-10T12:08:25.173Z,97939.10
2019-06-10T12:11:29.634Z,97941.39
2019-06-10T12:14:34.070Z,97926.64
2019-06-10T12:17:49.882Z,97929.41
2019-06-10T12:20:44.700Z,97925.69
2019-06-10T12:23:49.722Z,97921.13
2019-06-10T12:26:57.935Z,97927.48
2019-06-10T12:30:04.700Z,97910.45
2019-06-10T12:33:06.635Z,97888.73
2019-06-10T12:36:12.883Z,97884.02
2019-06-10T12:39:17.584Z,97882.56
2019-06-10T12:42:22.563Z,97885.20
2019-06-10T12:45:27.122Z,97879.58
2019-06-10T12:48:34.098Z,97875.93
2019-06-10T12:51:38.070Z,97888.77
2019-06-10T12:54:42.559Z,97897.06
2019-06-10T12:57:47.000Z,97891.63
2019-06-10T13:00:53.277Z,97888.97
2019-06-10T13:03:57.686Z,97892.75
2019-06-10T13:07:05.751Z,97898.20
2019-06-10T13:10:12.129Z,97896.91
2019-06-10T13:13:16.265Z,97899.05
2019-06-10T13:16:20.712Z,97895.22
2019-06-10T13:19:25.184Z,97888.34
2019-06-10T13:22:29.611Z,97876.11
2019-06-10T13:25:34.301Z,97874.02
2019-06-10T13:28:38.738Z,97867.78
2019-06-10T13:31:43.721Z,97844.20
2019-06-10T13:34:48.275Z,97826.88
2019-06-10T13:37:52.898Z,97865.55
2019-06-10T13:40:57.936Z,97905.02
2019-06-10T13:44:04.107Z,97910.58
2019-06-10T13:47:11.842Z,97911.33
2019-06-10T13:50:18.631Z,97912.90
2019-06-10T13:53:21.959Z,97909.53
2019-06-10T13:56:43.205Z,97905.66
2019-06-10T13:59:32.581Z,97928.17
2019-06-10T14:02:37.022Z,97934.73
2019-06-10T14:05:44.830Z,97913.48
2019-06-10T14:08:47.976Z,97891.50
2019-06-10T14:11:52.423Z,97883.11
2019-06-10T14:14:56.871Z,97868.26
2019-06-10T14:18:03.881Z,97851.71
2019-06-10T14:21:11.095Z,97864.83
2019-06-10T14:24:16.181Z,97896.78
2019-06-10T14:27:21.607Z,97904.44
2019-06-10T14:30:26.613Z,97898.32
2019-06-10T14:33:32.982Z,97909.91
2019-06-10T14:36:37.246Z,97903.30
2019-06-10T14:39:42.249Z,97892.27
2019-06-10T14:42:46.915Z,97891.38
2019-06-10T14:45:53.513Z,97888.88
2019-06-10T14:48:57.554Z,97860.95
2019-06-10T14:52:02.816Z,97825.55
2019-06-10T14:55:09.336Z,97819.00
2019-06-10T14:58:17.106Z,97808.95
2019-06-10T15:01:25.471Z,97802.26
2019-06-10T15:04:27.246Z,97798.50
2019-06-10T15:07:33.034Z,97794.45
2019-06-10T15:10:37.526Z,97793.11
2019-06-10T15:13:43.478Z,97790.30
2019-06-10T15:16:48.043Z,97789.61
2019-06-10T15:19:53.036Z,97772.81
2019-06-10T15:22:57.607Z,97775.07
2019-06-10T15:26:02.793Z,97777.92
2019-06-10T15:29:07.495Z,97797.51
2019-06-10T15:32:24.957Z,97820.38
2019-06-10T15:35:21.193Z,97834.45
2019-06-10T15:38:24.496Z,97844.17
2019-06-10T15:41:28.932Z,97855.50
2019-06-10T15:44:48.793Z,97858.41
2019-06-10T15:47:39.560Z,97858.78
2019-06-10T15:50:44.008Z,97850.82
2019-06-10T15:53:48.448Z,97860.08
2019-06-10T15:56:56.510Z,97864.41
2019-06-10T15:59:59.140Z,97861.22
2019-06-10T16:03:03.667Z,97872.33
2019-06-10T16:06:08.113Z,97873.45
2019-06-10T16:09:14.214Z,97872.92
2019-06-10T16:12:19.978Z,97876.31
2019-06-10T16:15:26.637Z,97879.77
2019-06-10T16:18:32.898Z,97878.59
2019-06-10T16:21:37.677Z,97871.00
2019-06-10T16:24:42.333Z,97863.32
2019-06-10T16:27:50.896Z,97861.03
2019-06-10T16:30:53.875Z,97851.87
2019-06-10T16:33:58.625Z,97848.05
2019-06-10T16:37:03.086Z,97842.70
2019-06-10T16:40:08.648Z,97844.53
2019-06-10T16:43:13.079Z,97843.08
2019-06-10T16:46:18.242Z,97848.08
2019-06-10T16:49:23.528Z,97855.98
2019-06-10T16:52:28.033Z,97867.86
2019-06-10T16:55:33.234Z,97875.55
2019-06-10T16:58:37.929Z,97876.66
2019-06-10T17:01:42.874Z,97869.98
2019-06-10T17:04:47.481Z,97863.66
2019-06-10T17:07:52.610Z,97873.54
2019-06-10T17:10:57.260Z,97887.30
2019-06-10T17:14:03.126Z,97887.98
2019-06-10T17:17:07.731Z,97882.21
2019-06-10T17:20:13.142Z,97879.28
2019-06-10T17:23:25.653Z,97859.92
2019-06-10T17:26:30.665Z,97847.08
2019-06-10T17:29:33.609Z,97835.29
2019-06-10T17:32:38.105Z,97833.34
2019-06-10T17:35:43.211Z,97837.16
2019-06-10T17:38:47.749Z,97843.05
2019-06-10T17:41:52.207Z,97848.39
2019-06-10T17:44:56.836Z,97839.11
2019-06-10T17:48:03.107Z,97845.55
2019-06-10T17:51:07.564Z,97847.38
2019-06-10T17:54:12.953Z,97825.10
2019-06-10T17:57:17.592Z,97814.22
2019-06-10T18:00:24.339Z,97820.22
2019-06-10T18:03:29.335Z,97826.41
2019-06-10T18:06:36.043Z,97818.02
2019-06-10T18:09:40.077Z,97799.70
2019-06-10T18:12:44.513Z,97799.34
2019-06-10T18:15:48.965Z,97817.52
2019-06-10T18:18:53.433Z,97845.16
2019-06-10T18:21:57.874Z,97865.34
2019-06-10T18:25:03.048Z,97863.62
2019-06-10T18:28:07.625Z,97837.00
2019-06-10T18:31:12.082Z,97835.13
2019-06-10T18:34:16.794Z,97848.61
2019-06-10T18:37:22.784Z,97853.14
2019-06-10T18:40:27.542Z,97841.88
2019-06-10T18:43:33.749Z,97841.63
2019-06-10T18:46:38.172Z,97848.41
2019-06-10T18:49:43.280Z,97844.45
2019-06-10T18:52:48.270Z,97830.26
2019-06-10T18:55:55.020Z,97835.98
2019-06-10T18:59:13.446Z,97831.61
2019-06-10T19:02:06.457Z,97825.18
2019-06-10T19:05:13.159Z,97810.88
2019-06-10T19:08:17.717Z,97824.48
2019-06-10T19:11:22.175Z,97812.97
2019-06-10T19:14:26.616Z,97816.20
2019-06-10T19:17:34.872Z,97798.72
2019-06-10T19:20:39.192Z,97803.59
2019-06-10T19:23:44.123Z,97797.31
2019-06-10T19:26:48.788Z,97801.38
2019-06-10T19:29:54.785Z,97808.43
2019-06-10T19:32:59.410Z,97805.03
2019-06-10T19:36:03.857Z,97805.45
2019-06-10T19:39:08.768Z,97814.00
2019-06-10T19:42:13.222Z,97817.40
2019-06-10T19:45:18.747Z,97818.92
2019-06-10T19:48:23.196Z,97818.75
2019-06-10T19:51:27.655Z,97820.36
2019-06-10T19:54:33.467Z,97815.69
2019-06-10T19:57:39.467Z,97820.56
2019-06-10T20:00:50.887Z,97842.27
2019-06-10T20:03:52.076Z,97847.06
2019-06-10T20:06:56.427Z,97846.64
2019-06-10T20:10:02.853Z,97830.64
2019-06-10T20:13:07.820Z,97820.75
2019-06-10T20:16:12.285Z,97814.10
2019-06-10T20:19:16.738Z,97806.66
2019-06-10T20:22:22.842Z,97797.87
2019-06-10T20:25:27.783Z,97811.61
2019-06-10T20:28:32.304Z,97823.73
2019-06-10T20:31:37.687Z,97819.11
2019-06-10T20:34:43.309Z,97812.33
2019-06-10T20:37:47.816Z,97798.18
2019-06-10T20:40:53.137Z,97791.14
2019-06-10T20:43:57.686Z,97795.38
2019-06-10T20:47:02.197Z,97806.85
2019-06-10T20:50:09.125Z,97811.56
2019-06-10T20:53:18.307Z,97823.07
2019-06-10T20:56:20.416Z,97835.49
2019-06-10T20:59:26.409Z,97848.03
2019-06-10T21:02:32.547Z,97863.66
2019-06-10T21:05:37.206Z,97871.00
2019-06-10T21:08:47.704Z,97873.16
2019-06-10T21:11:50.150Z,97870.58
2019-06-10T21:14:55.829Z,97848.33
2019-06-10T21:18:00.292Z,97826.47
2019-06-10T21:21:05.007Z,97815.74
2019-06-10T21:24:09.462Z,97799.27
2019-06-10T21:27:13.914Z,97804.42
2019-06-10T21:30:18.354Z,97795.29
2019-06-10T21:33:23.491Z,97795.16
2019-06-10T21:36:28.041Z,97783.16
2019-06-10T21:39:32.514Z,97797.65
2019-06-10T21:42:36.983Z,97801.05
2019-06-10T21:45:42.915Z,97790.95
2019-06-10T21:48:48.973Z,97777.16
2019-06-10T21:51:56.512Z,97757.70
2019-06-10T21:55:00.030Z,97742.59
2019-06-10T21:58:04.482Z,97734.66
2019-06-10T22:01:13.405Z,97729.33
2019-06-10T22:04:15.244Z,97728.61
2019-06-10T22:07:19.701Z,97727.03
2019-06-10T22:10:24.158Z,97727.70
2019-06-10T22:13:28.620Z,97734.41
2019-06-10T22:16:33.077Z,97723.58
2019-06-10T22:19:37.527Z,97721.01
2019-06-10T22:22:42.914Z,97706.91
2019-06-10T22:25:48.745Z,97705.63
2019-06-10T22:28:55.825Z,97687.42
2019-06-10T22:31:59.414Z,97691.67
2019-06-10T22:35:05.704Z,97702.13
2019-06-10T22:38:10.168Z,97712.49
2019-06-10T22:41:14.606Z,97709.56
2019-06-10T22:44:19.056Z,97715.75
2019-06-10T22:47:23.500Z,97711.47
2019-06-10T22:50:28.246Z,97706.05
2019-06-10T22:53:33.317Z,97714.45
2019-06-10T22:56:37.915Z,97727.31
2019-06-10T22:59:42.621Z,97747.18
2019-06-10T23:02:47.796Z,97776.08
2019-06-10T23:05:52.432Z,97813.74
2019-06-10T23:08:58.112Z,97822.75
2019-06-10T23:12:03.085Z,97815.76
2019-06-10T23:15:09.283Z,97785.97
2019-06-10T23:18:13.727Z,97778.02
2019-06-10T23:21:18.182Z,97775.95
2019-06-10T23:24:22.780Z,97776.75
2019-06-10T23:27:27.358Z,97778.33
2019-06-10T23:30:32.978Z,97764.78
2019-06-10T23:33:37.532Z,97751.91
2019-06-10T23:36:43.226Z,97729.77
2019-06-10T23:39:47.729Z,97720.36
2019-06-10T23:42:53.083Z,97700.05
2019-06-10T23:45:57.811Z,97701.05
2019-06-10T23:49:04.397Z,97703.58
2019-06-10T23:52:08.424Z,97723.22
2019-06-10T23:55:13.147Z,97729.05
2019-06-10T23:58:21.869Z,97725.91
